Time;durP1;ratioP1;P1;durP2;ratioP2;P2;SDS_P1;SDS_P2;PMS_P1;PMS_P2;Temp;Humidity;BMP_temperature;BMP_pressure;BME280_temperature;BME280_humidity;BME280_pressure;Samples;Min_cycle;Max_cycle;Signal;HPM_P1;HPM_P2
2024/01/15 00:01:19;;;;;;;;;0.00;0.00;;;;;1.93;100.00;100815.66;5072536;28;45360;-88
2024/01/15 00:03:45;;;;;;;;;0.00;0.00;;;;;1.99;100.00;100817.41;5061657;28;45278;-89
2024/01/15 00:06:12;;;;;;;;;0.00;0.00;;;;;2.00;100.00;100817.41;5060896;28;46819;-88
2024/01/15 00:08:38;;;;;;;;;0.00;0.00;;;;;2.02;100.00;100808.03;5060850;28;45352;-89
2024/01/15 00:11:05;;;;;;;;;0.00;0.00;;;;;2.04;100.00;100802.91;5044232;28;45313;-89
2024/01/15 00:13:33;;;;;;;;;0.00;0.00;;;;;2.05;100.00;100813.19;5077390;28;45929;-88
2024/01/15 00:16:03;;;;;;;;;0.00;0.00;;;;;2.05;100.00;100799.50;5060517;28;47332;-89
2024/01/15 00:18:29;;;;;;;;;0.00;0.00;;;;;2.03;100.00;100786.66;5078072;27;45519;-90
2024/01/15 00:20:54;;;;;;;;;0.00;0.00;;;;;2.03;100.00;100790.94;5078533;28;45325;-89
2024/01/15 00:23:27;;;;;;;;;0.00;0.00;;;;;2.02;100.00;100790.03;5060859;28;45258;-89
2024/01/15 00:25:52;;;;;;;;;0.00;0.00;;;;;2.04;100.00;100787.50;5044682;28;47272;-89
2024/01/15 00:28:18;;;;;;;;;0.00;0.00;;;;;1.99;100.00;100774.66;5060444;28;45426;-89
2024/01/15 00:30:43;;;;;;;;;0.00;0.00;;;;;2.03;100.00;100781.50;5060755;28;45442;-89
2024/01/15 00:33:12;;;;;;;;;0.00;0.00;;;;;2.07;100.00;100775.53;5060168;28;45414;-89
2024/01/15 00:35:39;;;;;;;;;0.00;0.00;;;;;2.08;100.00;100782.41;5060947;28;45591;-89
2024/01/15 00:38:05;;;;;;;;;0.00;0.00;;;;;2.10;100.00;100779.84;5043640;28;45739;-90
2024/01/15 00:40:38;;;;;;;;;0.00;0.00;;;;;2.12;100.00;100771.28;5043668;28;45641;-89
2024/01/15 00:43:07;;;;;;;;;10.00;9.00;;;;;2.13;100.00;100767.00;5059283;28;45259;-89
2024/01/15 00:45:41;;;;;;;;;0.00;0.00;;;;;2.16;100.00;100759.34;5077967;27;45381;-89
2024/01/15 00:48:25;;;;;;;;;0.00;0.00;;;;;2.18;100.00;100755.06;5061031;28;45415;-90
2024/01/15 00:50:54;;;;;;;;;0.00;0.00;;;;;2.22;100.00;100763.66;5039730;28;45386;-89
2024/01/15 00:53:22;;;;;;;;;0.00;0.00;;;;;2.20;100.00;100748.22;5058146;28;45174;-90
2024/01/15 00:55:57;;;;;;;;;0.00;0.00;;;;;2.27;100.00;100749.13;5057871;28;45453;-89
2024/01/15 00:58:22;;;;;;;;;0.00;0.00;;;;;2.24;100.00;100734.53;5040878;28;45479;-90
2024/01/15 01:00:48;;;;;;;;;0.00;0.00;;;;;2.28;100.00;100738.00;5039972;28;45383;-89
2024/01/15 01:03:13;;;;;;;;;0.00;0.00;;;;;2.31;100.00;100744.00;5040149;28;45297;-89
2024/01/15 01:05:38;;;;;;;;;0.00;0.00;;;;;2.32;100.00;100739.72;5022079;28;46992;-89
2024/01/15 01:08:06;;;;;;;;;0.00;0.00;;;;;2.36;100.00;100745.72;5039177;28;45431;-89
2024/01/15 01:10:32;;;;;;;;;0.50;0.50;;;;;2.36;100.00;100741.47;5040189;28;45392;-89
2024/01/15 01:13:05;;;;;;;;;0.00;0.00;;;;;2.40;100.00;100738.06;5036542;28;45655;-88
2024/01/15 01:15:31;;;;;;;;;0.00;0.00;;;;;2.38;100.00;100729.50;5039710;28;46621;-89
2024/01/15 01:18:03;;;;;;;;;0.00;0.00;;;;;2.40;100.00;100730.34;5056909;28;45324;-89
2024/01/15 01:20:49;;;;;;;;;0.00;0.00;;;;;2.43;100.00;100735.47;5039932;28;45306;-90
2024/01/15 01:23:22;;;;;;;;;0.00;0.00;;;;;2.42;100.00;100723.50;5040363;28;45582;-90
2024/01/15 01:25:47;;;;;;;;;0.00;0.00;;;;;2.45;100.00;100727.78;5039692;28;47794;-89
2024/01/15 01:28:13;;;;;;;;;0.00;0.00;;;;;2.44;100.00;100718.38;5061149;28;45221;-90
2024/01/15 01:30:39;;;;;;;;;0.00;0.00;;;;;2.43;100.00;100708.94;5059493;28;45427;-89
2024/01/15 01:33:07;;;;;;;;;0.00;0.00;;;;;2.44;100.00;100708.09;5077937;28;45375;-90
2024/01/15 01:35:37;;;;;;;;;0.00;0.00;;;;;2.47;100.00;100711.53;5077777;28;45676;-90
2024/01/15 01:38:02;;;;;;;;;0.00;0.00;;;;;2.48;100.00;100712.41;5059855;28;45956;-90
2024/01/15 01:40:37;;;;;;;;;0.00;0.00;;;;;2.53;100.00;100718.41;5042859;28;45442;-90
2024/01/15 01:43:04;;;;;;;;;0.00;0.00;;;;;2.54;100.00;100714.97;5074791;27;45539;-90
2024/01/15 01:45:30;;;;;;;;;0.00;0.00;;;;;2.55;100.00;100705.56;5056982;28;46647;-89
2024/01/15 01:47:56;;;;;;;;;0.00;0.00;;;;;2.59;100.00;100704.72;5039119;28;45445;-90
2024/01/15 01:50:24;;;;;;;;;0.00;0.00;;;;;2.57;100.00;100703.88;5039966;28;45363;-90
2024/01/15 01:53:00;;;;;;;;;0.00;0.00;;;;;2.57;100.00;100706.44;5039321;28;45301;-90
2024/01/15 01:55:34;;;;;;;;;0.00;0.00;;;;;2.59;100.00;100699.59;5022515;28;48313;-89
2024/01/15 01:58:05;;;;;;;;;4.00;4.00;;;;;2.60;100.00;100704.75;5024115;28;45733;-90
2024/01/15 02:00:45;;;;;;;;;0.00;0.00;;;;;2.59;100.00;100697.88;5044076;28;45392;-89
2024/01/15 02:03:21;;;;;;;;;0.00;0.00;;;;;2.58;100.00;100685.91;5060431;28;45244;-90
2024/01/15 02:05:48;;;;;;;;;0.00;0.00;;;;;2.56;100.00;100669.59;5060536;28;45302;-89
2024/01/15 02:08:14;;;;;;;;;0.00;0.00;;;;;2.54;100.00;100668.72;5054707;28;45185;-90
2024/01/15 02:10:49;;;;;;;;;0.00;0.00;;;;;2.55;100.00;100660.19;5038846;28;45248;-90
2024/01/15 02:13:17;;;;;;;;;0.00;0.00;;;;;2.59;100.00;100655.91;5075480;28;45555;-89
2024/01/15 02:15:52;;;;;;;;;0.00;0.00;;;;;2.56;100.00;100643.88;5041273;28;47567;-90
2024/01/15 02:18:21;;;;;;;;;0.00;0.00;;;;;2.57;100.00;100648.19;5060644;28;45396;-90
2024/01/15 02:20:49;;;;;;;;;0.00;0.00;;;;;2.61;100.00;100661.91;5062847;28;45372;-89
2024/01/15 02:23:20;;;;;;;;;0.00;0.00;;;;;2.63;100.00;100667.91;5045037;28;45281;-89
2024/01/15 02:25:53;;;;;;;;;0.00;0.00;;;;;2.63;100.00;100678.19;5045320;28;47127;-90
2024/01/15 02:28:21;;;;;;;;;0.00;0.00;;;;;2.67;100.00;100685.88;5062663;28;45374;-90
2024/01/15 02:31:06;;;;;;;;;0.00;0.00;;;;;2.68;100.00;100690.19;5045860;28;45294;-89
2024/01/15 02:33:34;;;;;;;;;0.00;0.00;;;;;2.72;100.00;100694.47;5062552;28;45527;-90
2024/01/15 02:36:00;;;;;;;;;0.00;0.00;;;;;2.72;100.00;100702.19;5062205;28;47276;-89
2024/01/15 02:38:28;;;;;;;;;0.00;0.00;;;;;2.68;100.00;100681.63;5080140;28;45586;-90
2024/01/15 02:41:03;;;;;;;;;0.00;0.00;;;;;2.68;100.00;100687.63;5079891;28;45359;-89
2024/01/15 02:43:28;;;;;;;;;0.00;0.00;;;;;2.68;100.00;100679.06;5080813;27;45482;-89
2024/01/15 02:45:58;;;;;;;;;0.00;0.00;;;;;2.69;100.00;100671.34;5045235;28;47279;-89
2024/01/15 02:48:26;;;;;;;;;0.00;0.00;;;;;2.67;100.00;100674.75;5062316;28;45355;-89
2024/01/15 02:51:14;;;;;;;;;0.00;0.00;;;;;2.66;100.00;100678.19;5080312;27;45301;-90
2024/01/15 02:53:40;;;;;;;;;0.00;0.00;;;;;2.66;100.00;100686.75;5080012;28;45427;-89
2024/01/15 02:56:09;;;;;;;;;0.00;0.00;;;;;2.66;100.00;100681.63;5079886;28;46741;-90
2024/01/15 02:58:39;;;;;;;;;0.00;0.00;;;;;2.65;100.00;100673.91;5049645;28;45351;-90
2024/01/15 03:01:22;;;;;;;;;;;;;;;;;;;;;
2024/01/15 03:03:58;;;;;;;;;0.00;0.00;;;;;2.67;100.00;100670.47;5062725;28;70025;-89
2024/01/15 03:06:26;;;;;;;;;0.00;0.00;;;;;2.66;100.00;100676.47;5045724;28;47098;-89
2024/01/15 03:08:53;;;;;;;;;0.00;0.00;;;;;2.72;100.00;100678.22;5061501;28;45255;-90
2024/01/15 03:11:49;;;;;;;;;0.00;0.00;;;;;2.73;100.00;100682.50;5062351;28;45199;-90
2024/01/15 03:14:26;;;;;;;;;5.25;5.25;;;;;2.74;100.00;100691.06;5079362;28;45234;-90
2024/01/15 03:16:52;;;;;;;;;0.00;0.00;;;;;2.75;100.00;100693.66;5046345;28;47812;-89
2024/01/15 03:19:30;;;;;;;;;0.00;0.00;;;;;2.79;100.00;100697.09;5061571;28;45366;-89
2024/01/15 03:22:09;;;;;;;;;0.00;0.00;;;;;2.83;100.00;100693.66;5078678;28;45338;-90
2024/01/15 03:24:54;;;;;;;;;0.00;0.00;;;;;2.83;100.00;100698.78;5078627;28;45672;-89
2024/01/15 03:27:22;;;;;;;;;0.00;0.00;;;;;2.78;100.00;100690.22;5079701;28;46588;-89
2024/01/15 03:29:48;;;;;;;;;0.00;0.00;;;;;2.78;100.00;100687.63;5060968;28;45290;-89
2024/01/15 03:32:15;;;;;;;;;0.00;0.00;;;;;2.78;100.00;100691.06;5044202;28;45510;-90
2024/01/15 03:34:46;;;;;;;;;0.00;0.00;;;;;2.77;100.00;100691.94;5061958;28;45516;-90
2024/01/15 03:37:27;;;;;;;;;0.00;0.00;;;;;2.71;100.00;100681.63;5044557;27;48003;-90
2024/01/15 03:39:54;;;;;;;;;0.00;0.00;;;;;2.70;100.00;100679.91;5061513;28;45910;-89
2024/01/15 03:42:20;;;;;;;;;0.00;0.00;;;;;2.69;100.00;100680.75;5044922;28;45447;-90
2024/01/15 03:44:47;;;;;;;;;0.00;0.00;;;;;2.69;100.00;100679.06;5061042;28;46210;-89
2024/01/15 03:47:33;;;;;;;;;15.25;13.50;;;;;2.68;100.00;100685.03;5058972;28;47985;-89
2024/01/15 03:50:08;;;;;;;;;0.00;0.00;;;;;2.67;100.00;100679.91;5074646;28;45476;-90
2024/01/15 03:52:39;;;;;;;;;0.00;0.00;;;;;2.63;100.00;100673.88;5044724;28;45395;-89
2024/01/15 03:55:35;;;;;;;;;0.00;0.00;;;;;2.63;100.00;100663.59;5061910;28;45317;-89
2024/01/15 03:58:05;;;;;;;;;0.00;0.00;;;;;2.64;100.00;100655.06;5016977;28;48065;-89
2024/01/15 04:00:40;;;;;;;;;0.00;0.00;;;;;2.62;100.00;100661.03;5000044;28;45397;-89
2024/01/15 04:03:35;;;;;;;;;0.00;0.00;;;;;2.61;100.00;100655.03;5000622;28;45327;-89
2024/01/15 04:06:24;;;;;;;;;0.00;0.00;;;;;2.59;100.00;100650.75;5000353;28;45483;-89
2024/01/15 04:09:05;;;;;;;;;;;;;;;;;;;;;
2024/01/15 04:11:50;;;;;;;;;0.00;0.00;;;;;2.57;100.00;100631.91;4998466;28;72121;-89
2024/01/15 04:17:48;;;;;;;;;0.00;0.00;;;;;2.55;100.00;100629.34;4992972;28;45521;-90
2024/01/15 04:20:26;;;;;;;;;;;;;;;;;;;;;
2024/01/15 04:22:56;;;;;;;;;0.00;0.00;;;;;2.62;100.00;100630.19;4995732;28;71803;-90
2024/01/15 04:26:05;;;;;;;;;0.75;0.75;;;;;2.61;100.00;100618.22;4980338;28;45370;-90
2024/01/15 04:31:55;;;;;;;;;0.00;0.00;;;;;2.62;100.00;100612.19;4975392;28;46335;-89
2024/01/15 04:34:28;;;;;;;;;0.00;0.00;;;;;2.64;100.00;100613.94;5032590;28;45263;-89
2024/01/15 04:37:26;;;;;;;;;4.00;4.00;;;;;2.65;100.00;100609.66;5024663;28;45396;-90
2024/01/15 04:39:55;;;;;;;;;0.00;0.00;;;;;2.63;100.00;100604.50;5041617;28;45254;-90
2024/01/15 04:42:58;;;;;;;;;;;;;;;;;;;;;
2024/01/15 04:45:39;;;;;;;;;0.00;0.00;;;;;2.72;100.00;100601.09;5060731;28;72764;-89
2024/01/15 04:48:13;;;;;;;;;0.00;0.00;;;;;2.70;100.00;100598.50;5078366;27;45360;-90
2024/01/15 04:50:38;;;;;;;;;4.00;4.00;;;;;2.74;100.00;100588.25;5044614;28;45428;-90
2024/01/15 04:53:16;;;;;;;;;;;;;;;;;;;;;
2024/01/15 04:59:02;;;;;;;;;;;;;;;;;;;;;
2024/01/15 05:01:52;;;;;;;;;;;;;;;;;;;;;
2024/01/15 05:07:32;;;;;;;;;0.00;0.00;;;;;2.81;100.00;100598.53;5042937;28;45457;-89
2024/01/15 05:10:04;;;;;;;;;0.00;0.00;;;;;2.84;100.00;100606.25;5040102;28;45306;-90
2024/01/15 05:12:37;;;;;;;;;3.00;3.00;;;;;2.81;100.00;100605.41;5024334;28;45281;-90
2024/01/15 05:15:05;;;;;;;;;0.00;0.00;;;;;2.82;100.00;100599.38;5039591;28;47372;-90
2024/01/15 05:17:33;;;;;;;;;0.00;0.00;;;;;2.85;100.00;100601.97;5049113;28;45908;-90
2024/01/15 05:19:58;;;;;;;;;0.00;0.00;;;;;2.85;100.00;100591.69;5077754;27;45225;-90
2024/01/15 05:22:34;;;;;;;;;0.00;0.00;;;;;2.86;100.00;100586.53;5059709;28;45308;-90
2024/01/15 05:25:02;;;;;;;;;0.00;0.00;;;;;2.89;100.00;100588.25;5059805;28;47234;-90
2024/01/15 05:27:45;;;;;;;;;0.00;0.00;;;;;2.90;100.00;100583.09;5060098;28;45361;-90
2024/01/15 05:30:13;;;;;;;;;0.00;0.00;;;;;2.93;100.00;100591.69;5077677;28;45446;-90
2024/01/15 05:32:44;;;;;;;;;0.00;0.00;;;;;2.91;100.00;100582.22;5039314;28;45524;-90
2024/01/15 05:35:21;;;;;;;;;0.00;0.00;;;;;2.95;100.00;100583.09;5057161;28;45541;-90
2024/01/15 05:41:00;;;;;;;;;0.00;0.00;;;;;2.99;100.00;100576.25;5059133;28;45273;-90
2024/01/15 05:43:28;;;;;;;;;0.00;0.00;;;;;3.04;100.00;100577.09;5059930;28;45545;-90
2024/01/15 05:46:19;;;;;;;;;0.00;0.00;;;;;3.08;100.00;100578.81;5076272;28;46131;-89
2024/01/15 05:49:11;;;;;;;;;0.00;0.00;;;;;3.08;100.00;100569.41;5068115;28;45400;-89
2024/01/15 05:51:47;;;;;;;;;0.00;0.00;;;;;3.09;100.00;100572.81;5039324;28;45352;-90
2024/01/15 05:54:37;;;;;;;;;;;;;;;;;;;;;
2024/01/15 05:57:10;;;;;;;;;0.00;0.00;;;;;3.09;100.00;100567.69;5080287;28;74477;-90
2024/01/15 05:59:43;;;;;;;;;0.00;0.00;;;;;3.11;100.00;100565.97;5079845;27;45775;-90
2024/01/15 06:02:28;;;;;;;;;;;;;;;;;;;;;
2024/01/15 06:05:07;;;;;;;;;0.00;0.00;;;;;3.15;100.00;100569.38;5063878;28;70232;-90
2024/01/15 06:07:43;;;;;;;;;0.00;0.00;;;;;3.16;100.00;100568.50;5064114;28;45486;-89
2024/01/15 06:10:13;;;;;;;;;0.00;0.00;;;;;3.16;100.00;100571.06;5073538;28;45381;-90
2024/01/15 06:12:46;;;;;;;;;0.00;0.00;;;;;3.13;100.00;100564.22;5042937;28;45246;-90
2024/01/15 06:15:16;;;;;;;;;0.00;0.00;;;;;3.20;100.00;100580.53;5042811;28;45294;-90
2024/01/15 06:17:49;;;;;;;;;0.00;0.00;;;;;3.18;100.00;100569.38;5059495;28;45530;-90
2024/01/15 06:20:25;;;;;;;;;;;;;;;;;;;;;
2024/01/15 06:23:15;;;;;;;;;0.00;0.00;;;;;3.23;100.00;100577.94;5033801;28;67668;-90
2024/01/15 06:26:03;;;;;;;;;0.00;0.00;;;;;3.24;100.00;100571.94;5019415;28;45528;-90
2024/01/15 06:28:30;;;;;;;;;4.00;4.00;;;;;3.26;100.00;100570.22;5019318;28;46165;-91
2024/01/15 06:30:55;;;;;;;;;0.00;0.00;;;;;3.26;100.00;100565.91;5032873;28;45556;-87
2024/01/15 06:33:20;;;;;;;;;0.00;0.00;;;;;3.26;100.00;100565.91;5007044;28;45437;-89
2024/01/15 06:35:46;;;;;;;;;3.00;3.00;;;;;3.30;100.00;100571.91;5037739;28;45619;-87
2024/01/15 06:38:11;;;;;;;;;0.00;0.00;;;;;3.32;100.00;100571.94;5021274;28;46854;-87
2024/01/15 06:40:45;;;;;;;;;0.00;0.00;;;;;3.27;100.00;100570.22;5020943;28;45444;-87
2024/01/15 06:43:10;;;;;;;;;0.00;0.00;;;;;3.32;100.00;100572.78;5037551;28;45372;-87
2024/01/15 06:45:35;;;;;;;;;0.00;0.00;;;;;3.30;100.00;100582.22;5039128;28;45290;-90
2024/01/15 06:48:03;;;;;;;;;0.00;0.00;;;;;3.32;100.00;100589.94;5037786;28;54386;-89
2024/01/15 06:50:28;;;;;;;;;0.00;0.00;;;;;3.34;100.00;100578.78;5038145;28;45430;-89
2024/01/15 06:52:54;;;;;;;;;0.00;0.00;;;;;3.37;100.00;100580.50;5037571;28;45349;-86
2024/01/15 06:55:19;;;;;;;;;0.00;0.00;;;;;3.39;100.00;100582.19;5070290;28;46182;-85
2024/01/15 06:57:45;;;;;;;;;0.00;0.00;;;;;3.40;100.00;100585.63;5053947;28;58992;-87
2024/01/15 07:00:10;;;;;;;;;0.00;0.00;;;;;3.39;100.00;100589.06;5037076;28;45350;-87
2024/01/15 07:02:36;;;;;;;;;0.00;0.00;;;;;3.37;100.00;100565.91;5021280;28;45325;-89
2024/01/15 07:05:01;;;;;;;;;0.00;0.00;;;;;3.40;100.00;100573.63;5020903;28;45234;-87
2024/01/15 07:07:29;;;;;;;;;0.00;0.00;;;;;3.40;100.00;100570.19;5037761;28;48118;-87
2024/01/15 07:09:54;;;;;;;;;0.00;0.00;;;;;3.39;100.00;100568.50;5037224;28;45321;-84
2024/01/15 07:12:20;;;;;;;;;0.00;0.00;;;;;3.39;100.00;100578.78;5036322;28;45426;-87
2024/01/15 07:14:45;;;;;;;;;0.00;0.00;;;;;3.38;100.00;100587.34;5038117;28;45319;-87
2024/01/15 07:17:10;;;;;;;;;0.00;0.00;;;;;3.41;100.00;100577.91;5037438;28;57729;-84
2024/01/15 07:19:36;;;;;;;;;0.00;0.00;;;;;3.40;100.00;100576.22;5049299;28;45418;-90
2024/01/15 07:22:02;;;;;;;;;0.00;0.00;;;;;3.43;100.00;100596.75;5060583;28;45324;-92
2024/01/15 07:24:27;;;;;;;;;0.00;0.00;;;;;3.44;100.00;100601.06;5058673;28;45471;-89
2024/01/15 07:26:52;;;;;;;;;0.00;0.00;;;;;3.45;100.00;100605.34;5031426;28;77279;-90
2024/01/15 07:29:18;;;;;;;;;0.00;0.00;;;;;3.47;100.00;100601.06;5055137;28;71544;-93
2024/01/15 07:31:50;;;;;;;;;0.00;0.00;;;;;3.48;100.00;100599.34;5042131;28;45329;-92
2024/01/15 07:34:16;;;;;;;;;0.00;0.00;;;;;3.51;100.00;100606.19;5041623;28;45356;-91
2024/01/15 07:36:42;;;;;;;;;0.00;0.00;;;;;3.48;100.00;100601.91;5059359;28;46705;-91
2024/01/15 07:39:07;;;;;;;;;0.00;0.00;;;;;3.49;100.00;100609.66;5057953;28;56870;-92
2024/01/15 07:41:32;;;;;;;;;0.00;0.00;;;;;3.49;100.00;100611.34;5040802;28;69919;-91
2024/01/15 07:43:58;;;;;;;;;1.00;1.00;;;;;3.47;100.00;100619.09;5057456;28;45313;-91
2024/01/15 07:46:24;;;;;;;;;0.00;0.00;;;;;3.51;100.00;100627.66;5058420;28;76142;-92
2024/01/15 07:48:55;;;;;;;;;2.00;2.00;;;;;3.48;100.00;100613.06;5075626;28;45445;-92
2024/01/15 07:51:21;;;;;;;;;0.00;0.00;;;;;3.53;100.00;100615.66;5082480;28;45582;-90
2024/01/15 07:53:46;;;;;;;;;0.00;0.00;;;;;3.53;100.00;100615.66;5066469;28;45302;-90
2024/01/15 07:56:12;;;;;;;;;1.00;1.00;;;;;3.54;100.00;100621.63;5065453;28;75292;-89
2024/01/15 07:58:37;;;;;;;;;0.00;0.00;;;;;3.56;100.00;100633.63;5065666;28;72045;-90
2024/01/15 08:01:02;;;;;;;;;0.00;0.00;;;;;3.54;100.00;100630.22;5083292;28;55857;-89
2024/01/15 08:03:27;;;;;;;;;0.00;0.00;;;;;3.56;100.00;100625.06;5066768;28;48700;-90
2024/01/15 08:05:54;;;;;;;;;0.00;0.00;;;;;3.57;100.00;100640.50;5041672;28;63553;-90
2024/01/15 08:08:21;;;;;;;;;0.00;0.00;;;;;3.55;100.00;100641.34;5058541;28;45819;-90
2024/01/15 08:10:46;;;;;;;;;0.00;0.00;;;;;3.60;100.00;100639.63;5058802;28;45334;-90
2024/01/15 08:13:11;;;;;;;;;0.00;0.00;;;;;3.64;100.00;100638.75;5057308;28;68363;-90
2024/01/15 08:15:37;;;;;;;;;0.00;0.00;;;;;3.63;100.00;100627.63;5058023;28;46487;-90
2024/01/15 08:18:02;;;;;;;;;40.75;34.50;;;;;3.65;100.00;100638.75;5057854;28;45182;-90
2024/01/15 08:20:28;;;;;;;;;0.00;0.00;;;;;3.65;100.00;100641.34;5077602;28;45542;-90
2024/01/15 08:22:53;;;;;;;;;0.00;0.00;;;;;3.67;100.00;100647.34;5059897;28;70521;-90
2024/01/15 08:25:18;;;;;;;;;0.00;0.00;;;;;3.70;100.00;100643.91;5078017;28;75699;-90
2024/01/15 08:27:44;;;;;;;;;0.00;0.00;;;;;3.71;100.00;100650.75;5059250;28;72341;-90
2024/01/15 08:30:10;;;;;;;;;2.00;1.00;;;;;3.72;100.00;100649.91;5059899;28;68773;-90
2024/01/15 08:32:40;;;;;;;;;0.00;0.00;;;;;3.74;100.00;100642.19;5078490;28;45469;-89
2024/01/15 08:35:06;;;;;;;;;0.00;0.00;;;;;3.77;100.00;100649.88;5061235;28;46321;-90
2024/01/15 08:37:31;;;;;;;;;0.00;0.00;;;;;3.78;100.00;100657.63;5078564;28;45552;-90
2024/01/15 08:39:56;;;;;;;;;0.00;0.00;;;;;3.79;100.00;100653.31;5043770;28;45796;-90
2024/01/15 08:42:22;;;;;;;;;0.00;0.00;;;;;3.82;100.00;100656.75;5059537;28;56193;-89
2024/01/15 08:44:47;;;;;;;;;0.00;0.00;;;;;3.84;100.00;100667.03;5060203;28;55194;-89
2024/01/15 08:47:12;;;;;;;;;0.00;0.00;;;;;3.88;100.00;100672.19;5059414;28;70333;-90
2024/01/15 08:49:38;;;;;;;;;0.00;0.00;;;;;3.92;100.00;100677.31;5046434;28;63917;-90
2024/01/15 08:52:03;;;;;;;;;0.00;0.00;;;;;3.97;100.00;100683.31;5022707;28;67999;-89
2024/01/15 08:54:28;;;;;;;;;0.00;0.00;;;;;4.02;100.00;100690.19;5023134;28;48140;-90
2024/01/15 08:56:54;;;;;;;;;1.00;1.00;;;;;4.04;100.00;100695.34;5039101;28;73420;-90
2024/01/15 08:59:24;;;;;;;;;0.00;0.00;;;;;4.09;100.00;100703.91;5040297;28;45251;-89
2024/01/15 09:01:50;;;;;;;;;3.00;3.00;;;;;4.12;100.00;100705.59;5040702;28;45549;-89
2024/01/15 09:04:15;;;;;;;;;0.00;0.00;;;;;4.15;100.00;100703.88;5058063;28;46205;-90
2024/01/15 09:06:44;;;;;;;;;0.00;0.00;;;;;4.19;100.00;100703.00;5022490;28;71991;-90
2024/01/15 09:09:10;;;;;;;;;0.00;0.00;;;;;4.23;100.00;100709.00;5058165;28;45305;-90
2024/01/15 09:11:35;;;;;;;;;0.00;0.00;;;;;4.31;100.00;100719.28;5039740;28;45438;-90
2024/01/15 09:14:00;;;;;;;;;3.00;0.00;;;;;4.36;100.00;100726.13;5022231;28;76503;-89
2024/01/15 09:16:26;;;;;;;;;0.00;0.00;;;;;4.38;100.00;100724.44;5040098;28;45332;-90
2024/01/15 09:18:51;;;;;;;;;0.00;0.00;;;;;4.41;100.00;100720.97;5039795;28;45250;-89
2024/01/15 09:21:17;;;;;;;;;0.00;0.00;;;;;4.42;100.00;100713.25;5040014;28;45325;-90
2024/01/15 09:23:42;;;;;;;;;0.00;0.00;;;;;4.41;100.00;100706.38;5039521;28;46582;-90
2024/01/15 09:26:09;;;;;;;;;0.00;0.00;;;;;4.39;100.00;100718.41;5039596;28;45376;-90
2024/01/15 09:28:34;;;;;;;;;0.00;0.00;;;;;4.32;100.00;100711.56;5057391;28;45301;-90
2024/01/15 09:30:59;;;;;;;;;0.00;0.00;;;;;4.26;100.00;100709.84;5057619;28;45619;-90
2024/01/15 09:33:25;;;;;;;;;0.00;0.00;;;;;4.26;100.00;100725.31;5038712;28;75431;-90
2024/01/15 09:35:50;;;;;;;;;0.00;0.00;;;;;4.23;100.00;100720.19;5039201;28;71756;-90
2024/01/15 09:38:15;;;;;;;;;0.00;0.00;;;;;4.23;100.00;100721.88;5038857;28;65476;-89
2024/01/15 09:40:43;;;;;;;;;0.00;0.00;;;;;4.29;100.00;100727.03;5022753;28;45164;-90
2024/01/15 09:43:08;;;;;;;;;0.00;0.00;;;;;4.45;100.00;100730.41;5052261;28;45468;-89
2024/01/15 09:45:34;;;;;;;;;0.00;0.00;;;;;4.64;100.00;100734.63;5042531;28;48273;-89
2024/01/15 09:47:59;;;;;;;;;0.75;0.75;;;;;4.83;100.00;100734.53;5059874;28;45374;-89
2024/01/15 09:50:25;;;;;;;;;0.00;0.00;;;;;5.00;100.00;100740.47;5076001;28;45186;-90
2024/01/15 09:52:50;;;;;;;;;0.00;0.00;;;;;5.03;100.00;100743.03;5076974;28;51968;-90
2024/01/15 09:55:18;;;;;;;;;0.00;0.00;;;;;5.08;100.00;100739.56;5059343;28;45266;-90
2024/01/15 09:57:44;;;;;;;;;0.00;0.00;;;;;5.10;100.00;100745.56;5076498;28;45424;-90
2024/01/15 10:00:10;;;;;;;;;0.00;0.00;;;;;5.12;100.00;100747.25;5076296;28;45483;-90
2024/01/15 10:02:36;;;;;;;;;0.00;0.00;;;;;5.12;100.00;100749.84;5059254;28;45626;-89
2024/01/15 10:05:02;;;;;;;;;0.00;0.00;;;;;5.10;100.00;100753.31;5058903;28;52981;-89
2024/01/15 10:07:29;;;;;;;;;1.50;1.50;;;;;5.02;100.00;100756.78;5077347;28;45352;-90
2024/01/15 10:09:54;;;;;;;;;0.00;0.00;;;;;4.98;100.00;100759.41;5058646;28;57739;-89
2024/01/15 10:12:22;;;;;;;;;0.00;0.00;;;;;4.93;100.00;100766.31;5059066;28;45476;-90
2024/01/15 10:14:49;;;;;;;;;0.00;0.00;;;;;4.91;100.00;100768.03;5059348;28;45643;-90
2024/01/15 10:17:17;;;;;;;;;0.00;0.00;;;;;4.89;100.00;100767.19;5059499;28;45370;-90
2024/01/15 10:19:42;;;;;;;;;0.00;0.00;;;;;4.91;100.00;100762.88;5059554;28;45361;-89
2024/01/15 10:22:09;;;;;;;;;0.00;0.00;;;;;4.91;100.00;100765.47;5059077;28;46206;-90
2024/01/15 10:24:38;;;;;;;;;0.00;0.00;;;;;4.92;100.00;100765.44;5076707;28;45265;-90
2024/01/15 10:27:13;;;;;;;;;0.00;0.00;;;;;4.94;100.00;100765.41;5059384;28;45348;-90
2024/01/15 10:29:38;;;;;;;;;3.00;3.00;;;;;4.95;100.00;100772.31;5077033;28;45444;-89
2024/01/15 10:32:08;;;;;;;;;0.00;0.00;;;;;5.00;100.00;100763.69;5077032;28;46398;-90
2024/01/15 10:34:33;;;;;;;;;0.00;0.00;;;;;5.01;100.00;100762.81;5059336;28;45953;-90
2024/01/15 10:36:58;;;;;;;;;0.00;0.00;;;;;5.03;100.00;100774.00;5041586;28;59468;-90
2024/01/15 10:39:24;;;;;;;;;0.00;0.00;;;;;5.06;100.00;100769.66;5059952;28;46738;-90
2024/01/15 10:41:53;;;;;;;;;0.00;0.00;;;;;5.13;100.00;100767.03;5062399;28;45263;-89
2024/01/15 10:44:19;;;;;;;;;0.00;0.00;;;;;5.17;100.00;100771.31;5080387;28;45433;-89
2024/01/15 10:46:45;;;;;;;;;0.00;0.00;;;;;5.20;100.00;100771.31;5080351;28;45428;-89
2024/01/15 10:49:11;;;;;;;;;0.00;0.00;;;;;5.27;100.00;100779.00;5053090;28;45542;-88
2024/01/15 10:51:36;;;;;;;;;0.00;0.00;;;;;5.32;100.00;100770.34;5059636;28;46546;-89
2024/01/15 10:54:02;;;;;;;;;0.00;0.00;;;;;5.45;100.00;100767.69;5023980;28;75141;-89
2024/01/15 10:56:27;;;;;;;;;0.00;0.00;;;;;5.50;100.00;100777.13;5041564;28;45308;-89
2024/01/15 10:58:54;;;;;;;;;0.75;0.75;;;;;5.58;100.00;100775.31;5041911;28;45269;-87
2024/01/15 11:01:20;;;;;;;;;0.00;0.00;;;;;5.71;100.00;100768.34;5041061;28;45437;-89
2024/01/15 11:03:47;;;;;;;;;0.00;0.00;;;;;5.87;100.00;100774.25;5041897;28;45367;-88
2024/01/15 11:06:21;;;;;;;;;0.25;0.00;;;;;5.99;100.00;100771.56;5041275;28;45261;-86
2024/01/15 11:08:50;;;;;;;;;0.00;0.00;;;;;6.21;100.00;100776.53;5058257;28;45328;-90
2024/01/15 11:11:20;;;;;;;;;0.00;0.00;;;;;8.33;100.00;100780.34;5041670;28;45598;-89
2024/01/15 11:13:51;;;;;;;;;0.00;0.00;;;;;9.36;100.00;100767.84;5059808;28;45506;-89
2024/01/15 11:16:17;;;;;;;;;0.00;0.00;;;;;9.23;100.00;100766.38;5042015;28;45397;-88
2024/01/15 11:19:01;;;;;;;;;0.00;0.00;;;;;10.05;100.00;100771.31;5058204;28;59401;-88
2024/01/15 11:21:29;;;;;;;;;0.00;0.00;;;;;12.97;100.00;100768.94;5040640;28;46403;-87
2024/01/15 11:23:59;;;;;;;;;0.00;0.00;;;;;15.22;98.27;100772.47;5058885;28;45314;-88
2024/01/15 11:26:31;;;;;;;;;0.00;0.00;;;;;16.86;100.00;100787.84;5057896;28;45407;-87
2024/01/15 11:29:01;;;;;;;;;0.00;0.00;;;;;17.86;100.00;100774.34;5041196;28;45363;-88
2024/01/15 11:31:49;;;;;;;;;0.00;0.00;;;;;18.18;96.09;100780.34;5041048;28;46374;-87
2024/01/15 11:34:14;;;;;;;;;0.00;0.00;;;;;18.40;81.14;100773.78;5057046;28;45773;-85
2024/01/15 11:36:49;;;;;;;;;0.00;0.00;;;;;19.00;99.31;100781.47;5057332;28;67151;-87
2024/01/15 11:39:26;;;;;;;;;0.00;0.00;;;;;19.73;92.85;100778.50;5040860;28;45307;-88
2024/01/15 11:41:52;;;;;;;;;0.00;0.00;;;;;19.88;100.00;100783.69;5058576;28;45273;-88
2024/01/15 11:44:17;;;;;;;;;0.00;0.00;;;;;20.19;88.57;100790.41;5040375;28;45407;-87
2024/01/15 11:47:05;;;;;;;;;0.00;0.00;;;;;20.11;76.64;100779.50;5039997;28;65365;-88
2024/01/15 11:49:49;;;;;;;;;0.00;0.00;;;;;18.19;65.39;100780.25;5039950;28;45506;-86
2024/01/15 11:52:18;;;;;;;;;3.00;1.00;;;;;17.85;79.46;100777.91;5058310;28;46462;-88
2024/01/15 11:55:14;;;;;;;;;0.00;0.00;;;;;18.43;77.36;100768.31;5057382;28;45300;-88
2024/01/15 11:57:39;;;;;;;;;0.00;0.00;;;;;18.41;75.06;100765.78;5040569;28;45246;-86
2024/01/15 12:00:08;;;;;;;;;0.00;0.00;;;;;18.42;57.59;100762.19;5040330;28;45369;-87
2024/01/15 12:02:34;;;;;;;;;0.00;0.00;;;;;18.73;66.49;100774.31;5040014;28;47296;-88
2024/01/15 12:04:59;;;;;;;;;0.00;0.00;;;;;19.85;73.78;100770.69;5038724;28;74794;-88
2024/01/15 12:07:24;;;;;;;;;0.00;0.00;;;;;20.83;80.12;100768.34;5039383;28;66457;-88